Time;durP1;ratioP1;P1;durP2;ratioP2;P2;SDS_P1;SDS_P2;PMS_P1;PMS_P2;Temp;Humidity;BMP_temperature;BMP_pressure;BME280_temperature;BME280_humidity;BME280_pressure;Samples;Min_cycle;Max_cycle;Signal;HPM_P1;HPM_P2
2021/11/18 00:01:29;;;;;;;39.03;21.90;;;;;;;-0.71;55.83;100154.86;1802828;78;21539;-38
2021/11/18 00:03:58;;;;;;;44.55;22.58;;;;;;;-0.70;55.70;100151.95;1806702;79;20953;-38
2021/11/18 00:06:25;;;;;;;35.98;22.05;;;;;;;-0.67;55.65;100155.39;1802758;78;20998;-37
2021/11/18 00:08:51;;;;;;;39.00;21.15;;;;;;;-0.69;55.64;100152.75;1808204;78;21090;-37
2021/11/18 00:11:21;;;;;;;38.95;21.15;;;;;;;-0.68;55.52;100157.02;1811175;79;20957;-38
2021/11/18 00:13:52;;;;;;;37.83;21.90;;;;;;;-0.72;55.55;100152.73;1811391;79;21519;-38
2021/11/18 00:16:19;;;;;;;39.00;21.77;;;;;;;-0.78;55.49;100144.49;1811414;79;21012;-38
2021/11/18 00:18:46;;;;;;;36.42;21.27;;;;;;;-0.87;55.64;100151.38;1811365;78;21048;-37
2021/11/18 00:21:18;;;;;;;38.98;20.45;;;;;;;-0.94;55.85;100152.19;1811338;79;21074;-38
2021/11/18 00:23:48;;;;;;;36.90;21.15;;;;;;;-1.02;56.03;100161.50;1811193;79;21006;-37
2021/11/18 00:26:14;;;;;;;43.75;21.77;;;;;;;-1.03;56.19;100162.56;1810897;79;20918;-38
2021/11/18 00:28:41;;;;;;;36.65;20.85;;;;;;;-0.99;56.21;100168.14;1737924;82;21679;-37
2021/11/18 00:31:08;;;;;;;38.30;21.05;;;;;;;-0.95;56.20;100163.89;1809733;79;21000;-37
2021/11/18 00:33:36;;;;;;;37.48;21.12;;;;;;;-0.94;56.07;100158.31;1738767;82;21147;-37
2021/11/18 00:36:06;;;;;;;33.28;21.00;;;;;;;-0.91;56.11;100159.63;1739813;82;21028;-37
2021/11/18 00:38:35;;;;;;;40.43;20.52;;;;;;;-0.87;56.00;100164.69;1739503;82;20944;-37
2021/11/18 00:41:01;;;;;;;37.38;20.77;;;;;;;-0.83;55.85;100159.13;1739726;82;21068;-38
2021/11/18 00:43:28;;;;;;;36.48;21.27;;;;;;;-0.78;55.67;100163.13;1739681;82;21094;-37
2021/11/18 00:45:55;;;;;;;32.30;20.35;;;;;;;-0.76;55.59;100155.66;1739833;82;21176;-38
2021/11/18 00:48:23;;;;;;;36.48;20.88;;;;;;;-0.75;55.51;100157.27;1726799;83;21000;-38
2021/11/18 00:50:53;;;;;;;42.90;22.00;;;;;;;-0.77;55.43;100154.05;1808261;79;21021;-37
2021/11/18 00:53:22;;;;;;;41.10;20.95;;;;;;;-0.84;55.47;100153.53;1811216;79;21024;-37
2021/11/18 00:55:49;;;;;;;36.85;21.27;;;;;;;-0.82;55.47;100146.06;1811633;79;21053;-37
2021/11/18 00:58:16;;;;;;;34.90;20.45;;;;;;;-0.80;55.42;100145.28;1811415;79;21106;-37
2021/11/18 01:00:45;;;;;;;33.08;19.52;;;;;;;-0.76;55.40;100145.54;1811487;79;21041;-38
2021/11/18 01:03:12;;;;;;;35.92;21.60;;;;;;;-0.75;55.28;100143.95;1811345;79;21108;-37
2021/11/18 01:05:43;;;;;;;41.02;21.42;;;;;;;-0.73;55.22;100147.16;1811596;79;21013;-38
2021/11/18 01:08:10;;;;;;;32.28;20.48;;;;;;;-0.77;55.16;100144.73;1793438;79;21036;-37
2021/11/18 01:10:42;;;;;;;37.95;20.57;;;;;;;-0.79;54.99;100140.23;1790674;79;21185;-37
2021/11/18 01:13:09;;;;;;;42.38;21.10;;;;;;;-0.83;55.03;100137.83;1774776;80;20964;-38
2021/11/18 01:15:39;;;;;;;38.23;20.85;;;;;;;-0.86;55.09;100134.35;1775113;80;21062;-37
2021/11/18 01:18:06;;;;;;;37.40;20.92;;;;;;;-0.92;55.23;100132.77;1775004;80;26469;-37
2021/11/18 01:20:33;;;;;;;37.88;21.25;;;;;;;-0.93;55.19;100133.83;1775304;80;21530;-38
2021/11/18 01:23:01;;;;;;;40.40;19.95;;;;;;;-0.96;55.23;100133.01;1774871;80;21949;-37
2021/11/18 01:25:28;;;;;;;39.42;20.88;;;;;;;-0.94;55.21;100133.55;1769957;80;20969;-38
2021/11/18 01:27:55;;;;;;;34.85;20.35;;;;;;;-0.94;55.16;100132.23;1760195;80;21014;-37
2021/11/18 01:30:26;;;;;;;38.67;20.65;;;;;;;-0.91;55.11;100128.50;1760417;79;20981;-38
2021/11/18 01:32:53;;;;;;;37.05;20.27;;;;;;;-0.92;55.00;100132.77;1760181;81;21037;-38
2021/11/18 01:35:28;;;;;;;34.78;19.67;;;;;;;-0.93;54.92;100121.85;1787161;79;21087;-37
2021/11/18 01:37:55;;;;;;;39.45;21.15;;;;;;;-0.94;54.83;100125.58;1753513;81;20966;-37
2021/11/18 01:40:26;;;;;;;37.53;19.75;;;;;;;-0.95;54.92;100127.96;1748841;81;20977;-37
2021/11/18 01:42:55;;;;;;;39.65;20.95;;;;;;;-0.95;54.83;100124.77;1791214;80;21069;-38
2021/11/18 01:45:23;;;;;;;38.40;20.27;;;;;;;-0.97;54.75;100122.13;1791699;80;21073;-38
2021/11/18 01:47:49;;;;;;;39.13;21.77;;;;;;;-0.96;54.73;100117.04;1774511;80;21118;-38
2021/11/18 01:50:20;;;;;;;35.28;20.48;;;;;;;-0.98;54.77;100115.19;1759606;81;20993;-38
2021/11/18 01:52:47;;;;;;;40.40;20.57;;;;;;;-1.01;55.02;100109.85;1739163;81;20969;-38
2021/11/18 01:55:16;;;;;;;35.30;20.80;;;;;;;-1.07;55.03;100110.94;1760028;81;21025;-37
2021/11/18 01:57:44;;;;;;;32.60;19.17;;;;;;;-1.08;55.18;100107.20;1760039;81;21006;-38
2021/11/18 02:00:18;;;;;;;41.95;20.85;;;;;;;-1.19;55.48;100102.39;1757219;81;21812;-37
2021/11/18 02:02:48;;;;;;;36.50;21.07;;;;;;;-1.28;55.57;100101.84;1760080;81;21496;-38
2021/11/18 02:05:33;;;;;;;34.78;20.37;;;;;;;-1.38;55.71;100104.75;1760203;81;21063;-38
2021/11/18 02:08:07;;;;;;;37.60;21.97;;;;;;;-1.46;55.94;100102.61;1760058;81;21084;-38
2021/11/18 02:10:41;;;;;;;34.73;20.15;;;;;;;-1.58;56.11;100098.04;1766581;80;21009;-38
2021/11/18 02:13:08;;;;;;;34.73;18.85;;;;;;;-1.59;56.31;100095.63;1779628;80;21122;-38
2021/11/18 02:15:46;;;;;;;39.08;21.10;;;;;;;-1.59;56.46;100092.45;1779527;80;21024;-37
2021/11/18 02:18:23;;;;;;;39.00;20.00;;;;;;;-1.61;56.34;100091.92;1779526;80;20980;-38
2021/11/18 02:20:53;;;;;;;35.78;19.62;;;;;;;-1.63;56.29;100087.39;1779709;80;21084;-37
2021/11/18 02:23:26;;;;;;;;;;;;;;;-1.59;56.05;100091.12;1781905;80;21022;-37
2021/11/18 02:25:54;;;;;;;36.80;20.45;;;;;;;-1.52;55.73;100093.54;1796058;79;21095;-38
2021/11/18 02:28:23;;;;;;;39.38;20.70;;;;;;;-1.63;55.97;100091.91;1811343;79;20961;-38
2021/11/18 02:30:52;;;;;;;32.60;18.90;;;;;;;-1.55;55.70;100088.20;1811445;79;21529;-38
2021/11/18 02:33:18;;;;;;;34.58;20.17;;;;;;;-1.54;55.96;100099.64;1811276;79;20996;-37
2021/11/18 02:35:47;;;;;;;34.48;19.17;;;;;;;-1.52;55.93;100094.34;1811147;78;21029;-37
2021/11/18 02:38:16;;;;;;;38.55;20.40;;;;;;;-1.54;55.93;100089.80;1811503;79;21736;-38
2021/11/18 02:40:42;;;;;;;39.60;21.45;;;;;;;-1.53;55.93;100084.77;1811385;79;21551;-37
2021/11/18 02:43:17;;;;;;;31.77;19.17;;;;;;;-1.58;56.08;100089.27;1811190;78;21680;-38
2021/11/18 02:45:47;;;;;;;29.32;17.87;;;;;;;-1.55;56.06;100087.42;1811390;79;20977;-38
2021/11/18 02:48:15;;;;;;;39.53;21.05;;;;;;;-1.55;55.76;100087.42;1811338;79;21048;-38
2021/11/18 02:50:47;;;;;;;39.90;21.02;;;;;;;-1.55;55.92;100086.88;1782103;79;21117;-37
2021/11/18 02:53:15;;;;;;;35.43;19.48;;;;;;;-1.61;56.04;100082.62;1809229;79;21262;-37
2021/11/18 02:55:45;;;;;;;37.70;21.42;;;;;;;-1.66;56.13;100088.45;1811548;79;20996;-38
2021/11/18 02:58:11;;;;;;;36.77;21.42;;;;;;;-1.69;56.00;100078.34;1811266;79;20961;-38
2021/11/18 03:00:53;;;;;;;40.50;22.27;;;;;;;-1.69;55.82;100080.45;1811578;79;20998;-38
2021/11/18 03:03:20;;;;;;;35.00;20.00;;;;;;;-1.68;56.18;100078.59;1810622;79;21894;-37
2021/11/18 03:05:48;;;;;;;40.12;21.20;;;;;;;-1.70;56.22;100072.23;1811313;79;20918;-38
2021/11/18 03:08:16;;;;;;;37.35;21.62;;;;;;;-1.74;56.56;100077.77;1804724;79;20988;-38
2021/11/18 03:10:45;;;;;;;44.42;22.70;;;;;;;-1.73;56.63;100076.72;1807219;79;20978;-37
2021/11/18 03:13:12;;;;;;;42.73;21.62;;;;;;;-1.76;56.66;100074.06;1799728;79;21876;-37
2021/11/18 03:15:39;;;;;;;43.52;22.05;;;;;;;-1.76;56.75;100074.59;1799733;79;21887;-38
2021/11/18 03:18:07;;;;;;;32.67;19.85;;;;;;;-1.72;56.57;100075.67;1780150;79;21012;-38
2021/11/18 03:20:35;;;;;;;38.50;21.77;;;;;;;-1.71;56.53;100069.83;1767412;81;20974;-37
2021/11/18 03:23:02;;;;;;;31.97;19.48;;;;;;;-1.74;56.52;100075.11;1738152;81;21096;-38
2021/11/18 03:25:32;;;;;;;39.13;21.20;;;;;;;-1.78;56.71;100071.39;1779643;79;21037;-37
2021/11/18 03:28:03;;;;;;;29.50;19.35;;;;;;;-1.77;56.76;100076.98;1798765;79;21139;-38
2021/11/18 03:30:33;;;;;;;34.95;20.77;;;;;;;-1.79;56.89;100074.57;1799660;79;21009;-38
2021/11/18 03:33:06;;;;;;;38.88;20.25;;;;;;;-1.83;56.90;100080.14;1799373;79;21016;-37
2021/11/18 03:35:34;;;;;;;40.63;21.12;;;;;;;-1.81;56.82;100079.36;1799795;79;21004;-38
2021/11/18 03:38:02;;;;;;;34.67;19.48;;;;;;;-1.81;57.08;100075.91;1800014;79;21001;-38
2021/11/18 03:40:29;;;;;;;38.23;20.23;;;;;;;-1.80;57.27;100076.98;1799968;79;21165;-37
2021/11/18 03:42:56;;;;;;;39.13;19.55;;;;;;;-1.84;57.52;100075.11;1799546;79;20922;-38
2021/11/18 03:45:24;;;;;;;34.92;19.70;;;;;;;-1.78;57.28;100066.88;1793968;79;20974;-37
2021/11/18 03:47:50;;;;;;;37.05;19.80;;;;;;;-1.79;56.84;100065.27;1799709;79;20918;-38
2021/11/18 03:50:17;;;;;;;33.48;19.70;;;;;;;-1.74;56.31;100065.04;1799692;79;21551;-38
2021/11/18 03:52:45;;;;;;;36.40;20.40;;;;;;;-1.73;55.89;100059.97;1799753;79;21052;-37
2021/11/18 03:55:14;;;;;;;36.93;21.65;;;;;;;-1.73;55.50;100054.13;1799549;79;20926;-37
2021/11/18 03:57:45;;;;;;;39.83;19.77;;;;;;;-1.72;55.41;100049.61;1799789;78;20985;-37
2021/11/18 04:00:19;;;;;;;37.00;20.62;;;;;;;-1.72;55.14;100048.28;1799784;79;21463;-38
2021/11/18 04:02:45;;;;;;;30.85;18.52;;;;;;;-1.76;55.51;100048.02;1800030;79;21480;-37
2021/11/18 04:05:14;;;;;;;36.53;19.82;;;;;;;-1.76;55.36;100046.16;1799744;79;21137;-37
2021/11/18 04:07:42;;;;;;;32.93;19.60;;;;;;;-1.76;55.25;100045.36;1799797;79;20914;-38
2021/11/18 04:10:14;;;;;;;35.38;20.55;;;;;;;-1.74;55.30;100040.56;1791412;79;20968;-37
2021/11/18 04:12:42;;;;;;;35.78;19.32;;;;;;;-1.72;55.43;100046.42;1778262;80;21017;-38
2021/11/18 04:15:09;;;;;;;38.00;20.15;;;;;;;-1.77;55.73;100047.74;1778130;80;21047;-37
2021/11/18 04:17:36;;;;;;;32.48;18.82;;;;;;;-1.79;55.79;100044.01;1778288;80;21539;-39
2021/11/18 04:20:07;;;;;;;36.60;19.85;;;;;;;-1.79;55.68;100041.88;1747560;80;21103;-37
2021/11/18 04:22:36;;;;;;;35.48;19.05;;;;;;;-1.81;55.87;100040.03;1778172;80;21553;-37
2021/11/18 04:25:06;;;;;;;42.13;20.80;;;;;;;-1.78;55.79;100039.49;1776249;79;21041;-38
2021/11/18 04:27:32;;;;;;;33.13;19.77;;;;;;;-1.81;56.08;100034.71;1768346;80;21550;-38
2021/11/18 04:29:59;;;;;;;34.63;19.77;;;;;;;-1.82;56.35;100038.42;1767990;81;22343;-38
2021/11/18 04:32:28;;;;;;;32.42;19.00;;;;;;;-1.85;56.62;100036.30;1768509;80;21092;-38
2021/11/18 04:34:55;;;;;;;33.73;19.52;;;;;;;-1.83;56.60;100033.63;1768643;81;21037;-37
2021/11/18 04:37:22;;;;;;;33.75;19.32;;;;;;;-1.89;56.54;100025.92;1768470;80;20937;-38
2021/11/18 04:39:49;;;;;;;32.23;20.05;;;;;;;-2.01;56.85;100020.03;1768355;81;20981;-37
2021/11/18 04:42:16;;;;;;;38.05;19.77;;;;;;;-2.10;57.25;100016.28;1768551;81;21192;-37
2021/11/18 04:44:45;;;;;;;32.75;19.48;;;;;;;-2.12;57.37;100014.39;1769809;78;21041;-38
2021/11/18 04:47:12;;;;;;;35.35;19.65;;;;;;;-2.13;57.41;100015.48;1768516;81;20898;-37
2021/11/18 04:49:42;;;;;;;37.30;18.90;;;;;;;-2.12;57.17;100011.73;1768300;80;21039;-38
2021/11/18 04:52:10;;;;;;;32.30;18.98;;;;;;;-2.17;57.25;100014.38;1768570;81;21049;-38
2021/11/18 04:54:37;;;;;;;32.45;18.65;;;;;;;-2.17;57.23;100007.20;1768314;80;21069;-37
2021/11/18 04:57:04;;;;;;;33.18;18.15;;;;;;;-2.17;57.04;100007.20;1769860;79;21100;-38
2021/11/18 04:59:33;;;;;;;39.80;21.23;;;;;;;-2.15;56.96;100007.77;1778119;80;21530;-37
2021/11/18 05:02:00;;;;;;;30.57;19.10;;;;;;;-2.16;57.30;100009.34;1778313;79;21567;-38
2021/11/18 05:04:26;;;;;;;36.70;19.57;;;;;;;-2.18;57.37;100007.48;1778520;79;21088;-37
2021/11/18 05:06:53;;;;;;;38.63;20.75;;;;;;;-2.18;57.33;100012.27;1778385;80;21133;-37
2021/11/18 05:09:20;;;;;;;33.67;20.40;;;;;;;-2.17;57.48;100013.84;1778170;80;21083;-37
2021/11/18 05:11:47;;;;;;;36.63;19.67;;;;;;;-2.14;57.62;100014.68;1775558;79;21464;-37
2021/11/18 05:14:14;;;;;;;37.05;20.92;;;;;;;-2.11;57.56;100013.34;1772541;81;20977;-37
2021/11/18 05:16:41;;;;;;;40.25;21.33;;;;;;;-2.10;57.68;100015.75;1751028;81;21346;-37
2021/11/18 05:19:08;;;;;;;34.90;19.65;;;;;;;-2.14;57.55;100007.23;1772685;81;21129;-37
2021/11/18 05:21:35;;;;;;;33.02;20.30;;;;;;;-2.20;57.54;100015.70;1766654;81;20985;-37
2021/11/18 05:24:05;;;;;;;36.33;21.33;;;;;;;-2.16;57.50;100014.65;1772480;81;21003;-37
2021/11/18 05:26:32;;;;;;;37.00;20.05;;;;;;;-2.14;57.43;100018.66;1762939;80;20942;-38
2021/11/18 05:29:00;;;;;;;33.83;19.92;;;;;;;-2.15;57.41;100013.59;1759960;81;21026;-37
2021/11/18 05:31:30;;;;;;;35.38;19.70;;;;;;;-2.18;57.29;100018.11;1760163;81;21213;-38
2021/11/18 05:34:05;;;;;;;36.83;19.98;;;;;;;-2.22;57.40;100017.28;1761891;80;21003;-38
2021/11/18 05:36:33;;;;;;;35.33;19.50;;;;;;;-2.20;57.32;100018.36;1760529;79;20954;-37
2021/11/18 05:39:00;;;;;;;36.28;19.52;;;;;;;-2.19;57.40;100023.95;1760130;81;21036;-37
2021/11/18 05:41:27;;;;;;;41.65;20.15;;;;;;;-2.15;57.32;100023.70;1760605;80;21046;-38
2021/11/18 05:43:56;;;;;;;38.17;19.87;;;;;;;-2.11;57.15;100022.64;1760220;81;21192;-37
2021/11/18 05:46:22;;;;;;;32.75;18.67;;;;;;;-2.04;56.67;100029.33;1760524;80;20927;-37
2021/11/18 05:48:49;;;;;;;39.95;19.32;;;;;;;-1.98;56.42;100026.14;1760167;80;21056;-38
2021/11/18 05:51:16;;;;;;;39.60;20.10;;;;;;;-1.94;56.11;100024.58;1760081;81;20982;-38
2021/11/18 05:53:44;;;;;;;39.90;20.15;;;;;;;-1.95;56.26;100020.32;1760248;81;21069;-37
2021/11/18 05:56:13;;;;;;;37.63;20.10;;;;;;;-1.91;56.01;100013.42;1786396;79;21081;-38
2021/11/18 05:58:41;;;;;;;37.17;20.40;;;;;;;-1.90;56.11;100016.35;1760049;81;21009;-38
2021/11/18 06:01:10;;;;;;;35.70;21.20;;;;;;;-1.97;56.44;100023.23;1760211;81;20974;-37
2021/11/18 06:03:39;;;;;;;;;;;;;;;-2.01;56.91;100028.80;1762825;81;21022;-38
2021/11/18 06:06:07;;;;;;;34.18;18.05;;;;;;;-1.98;56.99;100036.23;1760162;79;20416;-38
2021/11/18 06:08:34;;;;;;;35.40;20.97;;;;;;;-2.13;57.50;100041.48;1785840;79;21138;-37
2021/11/18 06:11:03;;;;;;;35.30;21.10;;;;;;;-2.23;57.71;100034.27;1759828;79;21012;-37
2021/11/18 06:13:33;;;;;;;36.85;21.02;;;;;;;-2.29;58.03;100029.22;1760054;81;21041;-38
2021/11/18 06:16:01;;;;;;;36.17;20.37;;;;;;;-2.25;58.10;100029.77;1760145;81;20965;-38
2021/11/18 06:18:28;;;;;;;35.95;20.43;;;;;;;-2.25;58.08;100033.75;1760270;81;21041;-38
2021/11/18 06:20:55;;;;;;;47.78;29.32;;;;;;;-2.22;57.99;100029.77;1760157;81;21905;-38
2021/11/18 06:23:22;;;;;;;43.92;25.37;;;;;;;-2.24;58.00;100026.06;1759899;81;22006;-37
2021/11/18 06:25:49;;;;;;;55.95;30.65;;;;;;;-2.24;58.06;100026.06;1775455;80;21010;-37
2021/11/18 06:28:15;;;;;;;65.45;36.48;;;;;;;-2.25;58.15;100023.13;1791377;80;21555;-37
2021/11/18 06:30:50;;;;;;;71.20;40.12;;;;;;;-2.27;58.15;100018.59;1773471;79;21080;-38
2021/11/18 06:33:17;;;;;;;52.90;25.12;;;;;;;-2.31;58.41;100012.73;1760023;81;21092;-37
2021/11/18 06:35:44;;;;;;;36.70;21.37;;;;;;;-2.30;58.57;100019.12;1759966;81;21040;-38
2021/11/18 06:38:11;;;;;;;41.10;21.87;;;;;;;-2.26;58.74;100022.05;1760159;81;21524;-37
2021/11/18 06:40:37;;;;;;;41.08;23.00;;;;;;;-2.27;59.03;100019.12;1760233;81;20969;-38
2021/11/18 06:43:04;;;;;;;45.98;23.05;;;;;;;-2.26;59.28;100021.52;1760221;81;21021;-37
2021/11/18 06:45:37;;;;;;;44.75;21.65;;;;;;;-2.27;59.69;100025.23;1759046;81;21145;-38
2021/11/18 06:48:08;;;;;;;46.98;23.32;;;;;;;-2.28;60.03;100021.00;1759468;81;20958;-41
2021/11/18 06:50:36;;;;;;;51.42;22.85;;;;;;;-2.26;60.38;100026.83;1760311;81;21631;-38
2021/11/18 06:53:04;;;;;;;53.63;24.23;;;;;;;-2.20;60.61;100027.14;1759558;81;20966;-37
2021/11/18 06:55:33;;;;;;;46.95;24.30;;;;;;;-2.20;60.80;100025.80;1759985;81;21109;-37
2021/11/18 06:58:00;;;;;;;43.85;22.77;;;;;;;-2.12;60.95;100023.69;1759951;81;21444;-37
2021/11/18 07:00:27;;;;;;;48.00;23.15;;;;;;;-2.08;61.12;100012.84;1760117;81;20978;-37
2021/11/18 07:02:55;;;;;;;228.20;124.47;;;;;;;-2.01;61.17;100011.53;1788805;79;21468;-37
2021/11/18 07:05:22;;;;;;;62.98;30.10;;;;;;;-1.98;61.43;100008.34;1791291;80;21004;-37
2021/11/18 07:07:50;;;;;;;54.48;33.02;;;;;;;-1.91;61.57;100004.13;1791120;80;21079;-37
2021/11/18 07:10:17;;;;;;;43.10;22.27;;;;;;;-1.89;61.76;99999.36;1791245;79;21195;-38
2021/11/18 07:12:48;;;;;;;42.73;22.13;;;;;;;-1.82;61.92;100001.22;1794357;79;21008;-37
2021/11/18 07:15:14;;;;;;;43.60;21.62;;;;;;;-1.77;61.95;99995.39;1797013;79;21017;-37
2021/11/18 07:17:43;;;;;;;43.65;21.02;;;;;;;-1.68;62.27;99995.66;1797129;79;20973;-37
2021/11/18 07:20:10;;;;;;;41.42;21.40;;;;;;;-1.60;62.49;99991.18;1797122;79;21492;-37
2021/11/18 07:22:39;;;;;;;40.75;22.15;;;;;;;-1.46;62.59;99986.94;1797379;79;21867;-38
2021/11/18 07:25:12;;;;;;;47.48;27.50;;;;;;;-1.34;62.76;99994.11;1796741;79;20974;-37
2021/11/18 07:27:39;;;;;;;40.33;21.82;;;;;;;-1.19;62.92;99991.98;1766031;79;20899;-37
2021/11/18 07:30:08;;;;;;;37.30;21.35;;;;;;;-0.99;62.84;99992.50;1792154;79;21125;-37
2021/11/18 07:32:35;;;;;;;47.05;27.15;;;;;;;-0.86;62.54;99994.61;1765860;81;21026;-38
2021/11/18 07:35:03;;;;;;;46.40;23.62;;;;;;;-0.69;62.39;100007.11;1765524;81;21153;-38
2021/11/18 07:37:32;;;;;;;28.90;17.00;;;;;;;-0.58;62.04;100000.67;1765742;81;20988;-37
2021/11/18 07:39:59;;;;;;;38.80;21.42;;;;;;;-0.45;62.14;99996.13;1765658;81;20959;-37
2021/11/18 07:42:27;;;;;;;35.68;20.05;;;;;;;-0.27;61.90;99992.59;1765633;80;21037;-37
2021/11/18 07:45:06;;;;;;;36.98;20.62;;;;;;;-0.12;61.80;99984.02;1761178;81;21094;-37
2021/11/18 07:47:51;;;;;;;34.92;20.05;;;;;;;0.11;61.26;99993.75;1765829;81;21144;-38
2021/11/18 07:50:20;;;;;;;40.58;20.52;;;;;;;0.31;60.36;99997.11;1766098;81;21558;-37
2021/11/18 07:52:47;;;;;;;35.63;19.25;;;;;;;0.41;60.20;100004.25;1765922;81;20959;-38
2021/11/18 07:55:17;;;;;;;36.38;19.77;;;;;;;0.47;60.20;100007.15;1765816;81;21086;-38
2021/11/18 07:57:46;;;;;;;36.13;20.35;;;;;;;0.54;59.93;100000.15;1765559;81;21039;-37
2021/11/18 08:00:15;;;;;;;34.95;21.50;;;;;;;0.56;60.02;99998.02;1765596;81;21893;-38
2021/11/18 08:02:49;;;;;;;36.95;20.68;;;;;;;0.63;59.85;100005.95;1764611;81;20991;-38
2021/11/18 08:05:18;;;;;;;40.60;21.73;;;;;;;0.67;59.63;99998.21;1704709;81;20943;-38
2021/11/18 08:07:45;;;;;;;36.42;21.12;;;;;;;0.70;59.87;99989.63;1765714;81;21473;-37
2021/11/18 08:10:14;;;;;;;35.25;19.73;;;;;;;0.77;59.96;99995.47;1765549;81;21059;-38
2021/11/18 08:12:43;;;;;;;29.32;20.15;;;;;;;0.87;59.95;99992.15;1772283;80;21165;-39
2021/11/18 08:15:12;;;;;;;33.23;20.00;;;;;;;0.94;59.86;99986.50;1779264;80;20977;-37
2021/11/18 08:17:39;;;;;;;31.02;19.50;;;;;;;1.03;59.58;99982.14;1779633;80;20964;-39
2021/11/18 08:20:08;;;;;;;38.78;22.17;;;;;;;1.11;59.45;99978.88;1779148;80;21084;-37
2021/11/18 08:22:35;;;;;;;39.95;24.72;;;;;;;1.17;59.45;99979.06;1779365;80;21033;-37
2021/11/18 08:27:54;;;;;;;33.15;19.23;;;;;;;1.33;59.29;99990.94;1836135;78;23412;-38
2021/11/18 08:30:24;;;;;;;27.20;19.50;;;;;;;1.30;59.45;100002.46;1806193;79;21532;-39
2021/11/18 08:32:54;;;;;;;33.50;18.82;;;;;;;1.43;59.32;100013.55;1806010;79;21082;-39
2021/11/18 08:35:31;;;;;;;31.33;18.82;;;;;;;1.54;59.17;100006.48;1805986;79;20990;-38
2021/11/18 08:37:55;;;;;;;28.85;18.57;;;;;;;1.69;58.89;100008.20;1805787;79;20998;-37
2021/11/18 08:40:22;;;;;;;31.70;18.57;;;;;;;1.78;58.20;100009.16;1806021;79;20955;-37
2021/11/18 08:42:49;;;;;;;38.33;19.60;;;;;;;1.81;58.23;100013.13;1806219;79;20891;-38
2021/11/18 08:45:16;;;;;;;32.28;19.48;;;;;;;1.89;58.19;100005.27;1806206;79;21101;-38
2021/11/18 08:47:43;;;;;;;32.08;20.25;;;;;;;1.98;57.89;100006.78;1805899;79;20947;-39
2021/11/18 08:50:16;;;;;;;37.15;20.77;;;;;;;2.09;57.75;100006.34;1806012;79;20963;-38
2021/11/18 08:52:43;;;;;;;29.55;19.02;;;;;;;2.17;57.64;99992.35;1805963;79;21471;-39
2021/11/18 08:55:14;;;;;;;29.50;19.15;;;;;;;2.26;57.70;99985.80;1800266;79;21042;-39
2021/11/18 08:57:42;;;;;;;34.80;21.40;;;;;;;2.33;57.69;99976.06;1776726;79;22120;-38
2021/11/18 09:00:27;;;;;;;34.43;21.02;;;;;;;2.36;57.74;99979.52;1803548;79;20970;-39
2021/11/18 09:02:56;;;;;;;96.75;52.45;;;;;;;2.37;57.89;99977.09;1804022;79;21032;-38
2021/11/18 09:05:23;;;;;;;142.87;75.12;;;;;;;2.34;58.06;99973.11;1806307;79;20959;-38
2021/11/18 09:07:50;;;;;;;43.38;27.37;;;;;;;2.30;58.39;99972.64;1806090;79;21038;-38
2021/11/18 09:10:16;;;;;;;35.15;21.77;;;;;;;2.21;58.47;99967.69;1806321;79;21068;-37
2021/11/18 09:12:45;;;;;;;34.75;20.77;;;;;;;2.25;58.42;99962.00;1805320;79;20982;-39
2021/11/18 09:15:15;;;;;;;40.75;23.92;;;;;;;2.30;58.59;99965.95;1806236;79;20959;-38
2021/11/18 09:17:43;;;;;;;36.35;20.50;;;;;;;2.42;58.15;99970.34;1806101;79;21592;-38
2021/11/18 09:20:13;;;;;;;46.02;27.20;;;;;;;2.50;57.44;99982.51;1804828;79;20983;-38
2021/11/18 09:22:40;;;;;;;34.38;21.23;;;;;;;2.50;57.95;99964.31;1806501;79;21119;-39
2021/11/18 09:25:09;;;;;;;33.50;20.92;;;;;;;2.50;58.26;99962.98;1795069;79;21569;-38
2021/11/18 09:27:44;;;;;;;59.88;33.10;;;;;;;2.50;58.00;99952.27;1745105;81;21453;-38
2021/11/18 09:30:18;;;;;;;42.53;25.68;;;;;;;2.49;58.32;99958.70;1742976;82;20974;-38
2021/11/18 09:32:51;;;;;;;35.05;20.90;;;;;;;2.54;58.06;99956.75;1742624;81;21081;-38
2021/11/18 09:35:25;;;;;;;41.98;26.70;;;;;;;2.56;58.17;99953.79;1742880;81;21963;-38
2021/11/18 09:37:52;;;;;;;73.62;43.28;;;;;;;2.57;58.24;99946.78;1741951;81;21017;-39
2021/11/18 09:40:23;;;;;;;46.65;27.20;;;;;;;2.59;58.15;99946.50;1742245;82;20926;-38
2021/11/18 09:43:25;;;;;;;34.18;22.30;;;;;;;2.61;58.29;99949.70;1741073;81;21520;-38
2021/11/18 09:46:14;;;;;;;37.85;21.15;;;;;;;2.62;58.38;99936.54;1736389;82;20977;-38
2021/11/18 09:49:12;;;;;;;34.63;20.30;;;;;;;2.58;58.34;99928.84;1742432;82;22037;-38
2021/11/18 09:52:04;;;;;;;36.00;20.08;;;;;;;2.63;58.41;99931.44;1742143;82;21008;-39
2021/11/18 09:54:45;;;;;;;35.08;19.57;;;;;;;2.68;58.42;99936.72;1742029;82;20922;-38
2021/11/18 09:57:32;;;;;;;35.20;22.77;;;;;;;2.82;58.25;99924.16;1742196;82;21016;-39
2021/11/18 10:00:19;;;;;;;31.93;20.92;;;;;;;2.92;58.29;99922.64;1739636;81;21041;-37
2021/11/18 10:03:16;;;;;;;35.65;21.23;;;;;;;3.00;58.00;99927.31;1742214;82;21947;-38
2021/11/18 10:06:15;;;;;;;35.58;21.68;;;;;;;3.02;58.03;99917.66;1742167;82;21540;-38
2021/11/18 10:09:09;;;;;;;35.23;20.63;;;;;;;3.05;58.09;99924.54;1742236;82;21628;-38
2021/11/18 10:12:04;;;;;;;34.33;22.90;;;;;;;3.03;58.19;99916.03;1742186;81;21602;-38
2021/11/18 10:14:53;;;;;;;34.13;21.90;;;;;;;3.01;58.43;99906.14;1742235;82;21045;-38
2021/11/18 10:17:37;;;;;;;29.00;16.23;;;;;;;2.99;58.65;99902.98;1742337;82;21199;-38
2021/11/18 10:20:25;;;;;;;44.83;27.70;;;;;;;2.97;58.64;99895.77;1741658;81;20949;-37
2021/11/18 10:23:00;;;;;;;40.85;22.95;;;;;;;2.90;58.91;99892.70;1760886;79;21022;-38
2021/11/18 10:25:32;;;;;;;33.88;21.35;;;;;;;2.84;59.27;99895.22;1772157;80;21076;-38
2021/11/18 10:28:22;;;;;;;36.80;22.77;;;;;;;2.81;59.68;99889.66;1785723;79;20989;-37
2021/11/18 10:31:08;;;;;;;44.48;25.70;;;;;;;2.80;59.72;99892.09;1781033;80;21145;-38
2021/11/18 10:33:45;;;;;;;40.78;23.40;;;;;;;2.81;59.76;99897.13;1789314;80;21515;-38
2021/11/18 10:36:49;;;;;;;42.27;27.98;;;;;;;2.78;59.86;99896.39;1778384;80;20874;-37
2021/11/18 10:39:46;;;;;;;35.43;23.65;;;;;;;2.78;60.07;99884.88;1727645;83;21085;-37
2021/11/18 10:42:24;;;;;;;41.65;22.13;;;;;;;2.79;60.21;99895.84;1761596;80;21005;-37
2021/11/18 10:45:12;;;;;;;32.73;20.27;;;;;;;2.78;60.19;99873.63;1789370;80;21141;-38
2021/11/18 10:47:56;;;;;;;32.42;20.52;;;;;;;2.85;60.33;99880.75;1789356;80;20917;-38
2021/11/18 10:50:45;;;;;;;40.20;21.00;;;;;;;2.97;60.46;99887.73;1789313;80;21052;-37
2021/11/18 10:53:23;;;;;;;34.20;20.70;;;;;;;3.08;60.27;99884.33;1789386;79;21068;-38
2021/11/18 10:56:12;;;;;;;34.48;20.88;;;;;;;3.13;59.90;99876.20;1789330;79;21263;-38
2021/11/18 10:58:45;;;;;;;38.05;22.17;;;;;;;3.14;59.95;99872.98;1788682;79;21811;-38
2021/11/18 11:01:30;;;;;;;35.48;21.40;;;;;;;3.21;59.83;99870.68;1789563;80;21352;-37
2021/11/18 11:03:59;;;;;;;33.05;20.00;;;;;;;2.88;59.94;99811.86;1789390;79;21001;-38
2021/11/18 11:06:45;;;;;;;32.98;20.40;;;;;;;3.33;59.87;99864.29;1789600;80;21028;-38
2021/11/18 11:09:17;;;;;;;34.88;20.32;;;;;;;3.40;59.78;99857.97;1788859;78;21078;-38
2021/11/18 11:12:11;;;;;;;31.15;20.12;;;;;;;3.43;59.73;99860.86;1783277;80;21109;-37
2021/11/18 11:15:11;;;;;;;35.78;20.55;;;;;;;3.48;59.66;99855.94;1783354;80;21038;-38
2021/11/18 11:17:52;;;;;;;37.13;21.37;;;;;;;3.50;59.52;99854.53;1782927;79;20929;-37
2021/11/18 11:20:28;;;;;;;36.20;21.70;;;;;;;3.48;59.55;99850.58;1783119;80;21210;-38
2021/11/18 11:23:35;;;;;;;35.17;20.70;;;;;;;3.48;59.58;99850.58;1760142;80;21079;-38
2021/11/18 11:26:36;;;;;;;33.58;20.90;;;;;;;3.45;59.59;99853.84;1768007;80;21068;-39
2021/11/18 11:29:27;;;;;;;33.08;19.60;;;;;;;3.46;59.60;99855.44;1757823;81;20993;-39
2021/11/18 11:32:17;;;;;;;32.83;21.10;;;;;;;3.51;59.73;99851.31;1761641;80;20922;-39
2021/11/18 11:35:20;;;;;;;33.83;21.57;;;;;;;3.66;59.49;99846.17;1769059;80;21515;-37
2021/11/18 11:38:21;;;;;;;37.42;23.07;;;;;;;3.70;59.24;99846.60;1766490;80;21515;-39